createdAt,value
2018-09-03T00:00:40.387Z,24.70
2018-09-03T00:03:17.463Z,26.50
2018-09-03T00:05:55.717Z,25.37
2018-09-03T00:08:32.680Z,25.63
2018-09-03T00:11:10.025Z,25.67
2018-09-03T00:13:47.088Z,25.03
2018-09-03T00:16:26.759Z,24.87
2018-09-03T00:19:03.687Z,25.10
2018-09-03T00:21:42.121Z,26.23
2018-09-03T00:24:19.692Z,26.40
2018-09-03T00:27:01.651Z,26.20
2018-09-03T00:29:38.572Z,26.53
2018-09-03T00:32:20.581Z,27.63
2018-09-03T00:35:02.386Z,27.10
2018-09-03T00:37:44.533Z,27.43
2018-09-03T00:40:26.323Z,26.10
2018-09-03T00:43:08.115Z,27.30
2018-09-03T00:45:49.867Z,26.23
2018-09-03T00:48:27.256Z,26.80
2018-09-03T00:51:04.247Z,25.97
2018-09-03T00:53:45.862Z,26.13
2018-09-03T00:56:22.891Z,26.33
2018-09-03T00:59:00.202Z,25.47
2018-09-03T01:01:37.614Z,27.13
2018-09-03T01:04:16.090Z,26.73
2018-09-03T01:06:53.021Z,25.23
2018-09-03T01:09:37.756Z,25.70
2018-09-03T01:12:14.786Z,25.70
2018-09-03T01:14:54.613Z,26.77
2018-09-03T01:17:31.709Z,26.83
2018-09-03T01:20:10.144Z,27.20
2018-09-03T01:22:47.077Z,28.00
2018-09-03T01:25:25.431Z,26.60
2018-09-03T01:28:02.268Z,26.93
2018-09-03T01:30:52.820Z,27.00
2018-09-03T01:33:29.754Z,27.47
2018-09-03T01:36:30.242Z,26.53
2018-09-03T01:39:09.439Z,26.37
2018-09-03T01:41:46.802Z,27.27
2018-09-03T01:44:23.564Z,28.53
2018-09-03T01:47:08.867Z,26.63
2018-09-03T01:49:45.597Z,27.97
2018-09-03T01:52:23.151Z,28.07
2018-09-03T01:55:00.316Z,26.67
2018-09-03T01:57:37.836Z,27.53
2018-09-03T02:00:14.635Z,26.70
2018-09-03T02:02:51.979Z,27.97
2018-09-03T02:05:28.965Z,27.97
2018-09-03T02:08:13.006Z,27.40
2018-09-03T02:10:50.060Z,27.57
2018-09-03T02:13:38.987Z,27.30
2018-09-03T02:16:16.151Z,27.57
2018-09-03T02:18:54.330Z,26.40
2018-09-03T02:21:31.145Z,25.47
2018-09-03T02:24:09.375Z,26.50
2018-09-03T02:26:46.385Z,26.83
2018-09-03T02:29:26.959Z,27.70
2018-09-03T02:32:05.941Z,26.03
2018-09-03T02:34:47.434Z,26.73
2018-09-03T02:37:24.440Z,26.50
2018-09-03T02:40:02.317Z,27.87
2018-09-03T02:42:41.402Z,28.00
2018-09-03T02:45:18.650Z,26.23
2018-09-03T02:47:55.477Z,25.63
2018-09-03T02:50:32.663Z,25.40
2018-09-03T02:53:09.486Z,26.27
2018-09-03T02:55:48.675Z,25.60
2018-09-03T02:58:30.416Z,24.53
2018-09-03T03:01:09.403Z,24.10
2018-09-03T03:03:46.874Z,24.13
2018-09-03T03:06:25.118Z,22.87
2018-09-03T03:09:02.252Z,22.70
2018-09-03T03:11:41.761Z,22.00
2018-09-03T03:14:21.831Z,22.90
2018-09-03T03:17:01.689Z,22.80
2018-09-03T03:19:38.640Z,21.47
2018-09-03T03:22:15.931Z,23.83
2018-09-03T03:24:52.794Z,24.10
2018-09-03T03:27:33.296Z,23.03
2018-09-03T03:30:11.382Z,23.70
2018-09-03T03:32:49.594Z,22.00
2018-09-03T03:35:26.539Z,22.63
2018-09-03T03:38:06.078Z,21.70
2018-09-03T03:40:43.173Z,22.07
2018-09-03T03:43:20.381Z,22.40
2018-09-03T03:45:57.168Z,22.43
2018-09-03T03:48:34.113Z,24.37
2018-09-03T03:51:11.272Z,21.77
2018-09-03T03:53:49.893Z,22.27
2018-09-03T03:56:26.777Z,22.53
2018-09-03T03:59:04.154Z,22.03
2018-09-03T04:01:41.301Z,21.67
2018-09-03T04:04:20.377Z,22.17
2018-09-03T04:06:57.283Z,22.43
2018-09-03T04:09:36.046Z,21.73
2018-09-03T04:12:13.168Z,22.23
2018-09-03T04:14:59.469Z,21.63
2018-09-03T04:17:36.579Z,21.27
2018-09-03T04:20:17.823Z,21.77
2018-09-03T04:22:54.829Z,22.10
2018-09-03T04:25:32.245Z,21.67
2018-09-03T04:28:09.403Z,22.13
2018-09-03T04:30:47.949Z,22.83
2018-09-03T04:33:24.929Z,21.50
2018-09-03T04:36:03.638Z,21.23
2018-09-03T04:38:40.683Z,21.00
2018-09-03T04:41:22.776Z,20.53
2018-09-03T04:43:59.740Z,20.67
2018-09-03T04:46:37.604Z,20.63
2018-09-03T04:49:14.625Z,20.53
2018-09-03T04:51:52.256Z,21.70
2018-09-03T04:54:29.283Z,20.60
2018-09-03T04:57:06.632Z,20.57
2018-09-03T04:59:45.490Z,20.07
2018-09-03T05:02:23.780Z,21.20
2018-09-03T05:05:03.098Z,20.67
2018-09-03T05:07:41.966Z,19.47
2018-09-03T05:10:19.790Z,21.90
2018-09-03T05:12:56.882Z,20.23
2018-09-03T05:15:34.318Z,21.03
2018-09-03T05:18:11.478Z,20.70
2018-09-03T05:20:51.495Z,20.07
2018-09-03T05:23:28.739Z,20.37
2018-09-03T05:26:12.459Z,21.10
2018-09-03T05:28:49.662Z,19.43
2018-09-03T05:31:29.875Z,21.83
2018-09-03T05:34:07.093Z,20.17
2018-09-03T05:37:02.288Z,21.07
2018-09-03T05:39:41.433Z,20.63
2018-09-03T05:42:27.759Z,21.00
2018-09-03T05:45:07.229Z,21.27
2018-09-03T05:47:49.317Z,20.53
2018-09-03T05:50:28.656Z,21.73
2018-09-03T05:53:13.185Z,20.63
2018-09-03T05:55:50.559Z,20.33
2018-09-03T05:58:33.543Z,20.23
2018-09-03T06:01:09.013Z,20.37
2018-09-03T06:03:45.885Z,20.80
2018-09-03T06:06:21.250Z,19.97
2018-09-03T06:09:01.774Z,20.57
2018-09-03T06:11:36.984Z,21.57
2018-09-03T06:14:12.133Z,21.10
2018-09-03T06:16:54.455Z,21.83
2018-09-03T06:19:32.805Z,20.70
2018-09-03T06:22:11.319Z,21.77
2018-09-03T06:24:56.896Z,20.70
2018-09-03T06:27:33.837Z,20.80
2018-09-03T06:32:53.944Z,19.47
2018-09-03T06:35:32.390Z,22.13
2018-09-03T06:38:17.253Z,21.40
2018-09-03T06:40:54.577Z,21.77
2018-09-03T06:46:16.785Z,21.27
2018-09-03T06:49:04.023Z,20.90
2018-09-03T06:51:42.199Z,22.53
2018-09-03T06:54:17.464Z,21.27
2018-09-03T06:56:57.912Z,21.83
2018-09-03T06:59:36.386Z,19.77
2018-09-03T07:02:14.433Z,21.63
2018-09-03T07:04:57.029Z,21.60
2018-09-03T07:07:36.345Z,21.23
2018-09-03T07:10:21.140Z,21.40
2018-09-03T07:12:57.367Z,20.63
2018-09-03T07:15:36.299Z,20.23
2018-09-03T07:18:16.422Z,19.83
2018-09-03T07:20:51.826Z,19.13
2018-09-03T07:23:38.492Z,20.10
2018-09-03T07:26:19.521Z,19.37
2018-09-03T07:28:57.629Z,20.47
2018-09-03T07:31:48.544Z,20.03
2018-09-03T07:34:24.094Z,19.97
2018-09-03T07:37:01.317Z,19.90
2018-09-03T07:39:42.485Z,19.87
2018-09-03T07:42:21.161Z,19.40
2018-09-03T07:45:04.068Z,20.17
2018-09-03T07:47:41.020Z,20.50
2018-09-03T07:50:20.507Z,18.80
2018-09-03T07:53:00.837Z,19.80
2018-09-03T07:55:40.751Z,19.17
2018-09-03T07:58:20.943Z,18.83
2018-09-03T08:00:58.586Z,20.13
2018-09-03T08:03:34.268Z,19.43
2018-09-03T08:06:09.528Z,19.23
2018-09-03T08:08:45.470Z,20.63
2018-09-03T08:11:26.503Z,19.90
2018-09-03T08:14:05.427Z,20.17
2018-09-03T08:16:48.369Z,19.53
2018-09-03T08:19:26.122Z,19.43
2018-09-03T08:22:05.510Z,19.30
2018-09-03T08:24:48.049Z,19.67
2018-09-03T08:27:27.526Z,20.67
2018-09-03T08:30:07.260Z,21.20
2018-09-03T08:32:54.868Z,21.17
2018-09-03T08:35:30.112Z,20.20
2018-09-03T08:38:08.576Z,20.40
2018-09-03T08:40:49.389Z,21.13
2018-09-03T08:43:30.803Z,20.87
2018-09-03T08:46:09.561Z,21.07
2018-09-03T08:48:50.117Z,21.50
2018-09-03T08:51:30.895Z,20.67
2018-09-03T08:54:10.095Z,26.00
2018-09-03T08:56:51.279Z,22.00
2018-09-03T08:59:29.485Z,20.60
2018-09-03T09:02:12.265Z,21.73
2018-09-03T09:04:51.167Z,21.07
2018-09-03T09:07:51.251Z,20.97
2018-09-03T09:10:31.358Z,21.87
2018-09-03T09:13:09.753Z,20.60
2018-09-03T09:15:49.570Z,20.23
2018-09-03T09:18:30.786Z,21.20
2018-09-03T09:21:21.956Z,21.50
2018-09-03T09:23:57.078Z,19.77
2018-09-03T09:26:35.353Z,19.47
2018-09-03T09:29:16.265Z,18.97
2018-09-03T09:31:54.721Z,18.20
2018-09-03T09:34:34.513Z,16.30
2018-09-03T09:37:15.162Z,15.97
2018-09-03T09:39:54.920Z,15.53
2018-09-03T09:42:34.741Z,15.73
2018-09-03T09:45:12.843Z,14.67
2018-09-03T09:47:48.428Z,14.83
2018-09-03T09:50:23.578Z,13.80
2018-09-03T09:52:58.809Z,13.97
2018-09-03T09:55:37.513Z,13.00
2018-09-03T09:58:16.964Z,14.60
2018-09-03T10:01:01.774Z,16.73
2018-09-03T10:03:39.239Z,14.73
2018-09-03T10:06:18.383Z,14.13
2018-09-03T10:09:05.330Z,13.77
2018-09-03T10:11:40.478Z,13.33
2018-09-03T10:14:25.935Z,13.43
2018-09-03T10:17:01.274Z,13.10
2018-09-03T10:19:39.778Z,12.80
2018-09-03T10:22:20.823Z,12.90
2018-09-03T10:25:01.657Z,12.77
2018-09-03T10:27:48.092Z,12.67
2018-09-03T10:30:23.259Z,13.07
2018-09-03T10:33:02.513Z,11.70
2018-09-03T10:35:42.917Z,11.60
2018-09-03T10:38:20.840Z,12.77
2018-09-03T10:41:00.088Z,12.40
2018-09-03T10:43:42.513Z,12.57
2018-09-03T10:46:23.328Z,13.40
2018-09-03T10:49:04.891Z,12.93
2018-09-03T10:51:43.563Z,13.07
2018-09-03T10:54:22.292Z,12.27
2018-09-03T10:57:04.613Z,12.40
2018-09-03T10:59:45.799Z,11.93
2018-09-03T11:02:27.515Z,11.30
2018-09-03T11:05:06.448Z,11.67
2018-09-03T11:07:47.330Z,12.10
2018-09-03T11:10:26.181Z,10.93
2018-09-03T11:13:07.079Z,12.67
2018-09-03T11:15:48.342Z,13.60
2018-09-03T11:21:10.515Z,12.43
2018-09-03T11:26:32.313Z,11.63
2018-09-03T11:29:10.754Z,12.57
2018-09-03T11:31:49.633Z,11.03
2018-09-03T11:34:34.133Z,12.60
2018-09-03T11:37:12.488Z,13.10
2018-09-03T11:39:47.922Z,12.07
2018-09-03T11:42:31.734Z,12.50
2018-09-03T11:45:11.064Z,13.30
2018-09-03T11:47:50.901Z,12.43
2018-09-03T11:50:32.059Z,13.47
2018-09-03T11:55:52.818Z,14.87
2018-09-03T11:58:42.871Z,14.97
2018-09-03T12:01:18.210Z,14.33
2018-09-03T12:03:53.489Z,15.63
2018-09-03T12:06:39.204Z,15.10
2018-09-03T12:09:14.404Z,17.67
2018-09-03T12:12:00.303Z,16.33
2018-09-03T12:14:38.493Z,17.90
2018-09-03T12:17:15.251Z,17.40
2018-09-03T12:19:54.421Z,16.63
2018-09-03T12:22:32.377Z,17.30
2018-09-03T12:25:16.903Z,16.27
2018-09-03T12:27:55.535Z,16.03
2018-09-03T12:30:36.795Z,16.57
2018-09-03T12:33:17.411Z,16.53
2018-09-03T12:35:55.788Z,17.67
2018-09-03T12:38:38.045Z,17.23
2018-09-03T12:41:19.160Z,16.57
2018-09-03T12:43:58.117Z,19.10
2018-09-03T12:46:36.726Z,18.40
2018-09-03T12:49:12.055Z,18.73
2018-09-03T12:51:47.242Z,18.10
2018-09-03T12:54:22.752Z,18.63
2018-09-03T12:56:57.998Z,18.40
2018-09-03T12:59:33.489Z,18.10
2018-09-03T13:02:09.515Z,17.97
2018-09-03T13:04:44.866Z,18.17
2018-09-03T13:07:20.288Z,20.43
2018-09-03T13:09:55.731Z,19.33
2018-09-03T13:12:31.083Z,19.20
2018-09-03T13:15:06.581Z,20.20
2018-09-03T13:17:43.812Z,19.70
2018-09-03T13:20:19.214Z,19.77
2018-09-03T13:22:54.515Z,19.93
2018-09-03T13:25:29.882Z,21.03
2018-09-03T13:28:05.197Z,21.07
2018-09-03T13:30:42.918Z,21.07
2018-09-03T13:33:25.002Z,21.30
2018-09-03T13:36:03.477Z,21.13
2018-09-03T13:38:48.917Z,22.60
2018-09-03T13:41:27.185Z,20.93
2018-09-03T13:44:06.065Z,21.47
2018-09-03T13:46:46.088Z,21.67
2018-09-03T13:52:06.682Z,22.30
2018-09-03T13:54:44.499Z,21.20
2018-09-03T13:57:27.457Z,21.90
2018-09-03T14:00:08.663Z,21.53
2018-09-03T14:02:47.510Z,22.73
2018-09-03T14:05:28.314Z,22.53
2018-09-03T14:08:07.721Z,24.73
2018-09-03T14:10:45.344Z,22.17
2018-09-03T14:13:30.236Z,22.63
2018-09-03T14:16:08.101Z,23.10
2018-09-03T14:18:45.610Z,22.30
2018-09-03T14:21:25.175Z,21.43
2018-09-03T14:24:00.573Z,20.80
2018-09-03T14:26:35.849Z,21.90
2018-09-03T14:29:16.594Z,20.87
2018-09-03T14:31:51.989Z,21.10
2018-09-03T14:34:36.964Z,21.27
2018-09-03T14:37:12.136Z,21.43
2018-09-03T14:39:52.962Z,21.60
2018-09-03T14:42:31.076Z,21.73
2018-09-03T14:47:54.729Z,20.07
2018-09-03T14:50:31.424Z,20.87
2018-09-03T14:53:14.686Z,22.73
2018-09-03T14:55:53.940Z,20.97
2018-09-03T14:58:31.809Z,20.00
2018-09-03T15:01:13.369Z,20.80
2018-09-03T15:03:53.054Z,19.67
2018-09-03T15:06:31.486Z,20.27
2018-09-03T15:09:14.255Z,19.33
2018-09-03T15:11:57.409Z,20.07
2018-09-03T15:14:41.012Z,21.77
2018-09-03T15:17:17.619Z,21.07
2018-09-03T15:19:54.660Z,19.63
2018-09-03T15:22:33.483Z,19.77
2018-09-03T15:25:08.767Z,19.47
2018-09-03T15:27:44.549Z,19.70
2018-09-03T15:30:23.451Z,20.80
2018-09-03T15:32:58.952Z,21.40
2018-09-03T15:35:37.603Z,19.80
2018-09-03T15:38:15.391Z,19.23
2018-09-03T15:40:50.758Z,19.63
2018-09-03T15:43:27.454Z,18.73
2018-09-03T15:46:02.779Z,20.37
2018-09-03T15:48:41.340Z,19.27
2018-09-03T15:51:22.225Z,19.70
2018-09-03T15:54:01.188Z,20.60
2018-09-03T15:56:39.154Z,20.03
2018-09-03T15:59:14.513Z,20.20
2018-09-03T16:01:52.836Z,20.83
2018-09-03T16:04:28.245Z,20.03
2018-09-03T16:07:03.549Z,19.67
2018-09-03T16:09:45.498Z,20.70
2018-09-03T16:12:21.429Z,20.73
2018-09-03T16:14:59.690Z,20.93
2018-09-03T16:17:36.796Z,20.30
2018-09-03T16:20:12.073Z,19.73
2018-09-03T16:22:47.537Z,21.33
2018-09-03T16:25:27.287Z,21.13
2018-09-03T16:28:05.002Z,19.43
2018-09-03T16:30:42.737Z,19.73
2018-09-03T16:33:19.587Z,19.60
2018-09-03T16:35:57.208Z,19.90
2018-09-03T16:38:32.601Z,19.23
2018-09-03T16:41:10.547Z,20.80
2018-09-03T16:43:47.552Z,20.77
2018-09-03T16:46:25.052Z,20.57
2018-09-03T16:49:07.206Z,20.47
2018-09-03T16:51:46.427Z,20.63
2018-09-03T16:54:21.874Z,19.90
2018-09-03T16:57:05.678Z,20.53
2018-09-03T16:59:41.167Z,21.43
2018-09-03T17:02:16.542Z,20.50
2018-09-03T17:04:55.531Z,20.17
2018-09-03T17:07:30.971Z,22.03
2018-09-03T17:10:08.903Z,21.70
2018-09-03T17:12:45.171Z,21.30
2018-09-03T17:15:20.477Z,23.07
2018-09-03T17:17:55.827Z,21.47
2018-09-03T17:20:35.794Z,23.17
2018-09-03T17:23:12.494Z,21.00
2018-09-03T17:25:49.688Z,22.33
2018-09-03T17:28:25.547Z,22.90
2018-09-03T17:31:00.872Z,23.00
2018-09-03T17:33:36.172Z,23.33
2018-09-03T17:36:14.996Z,23.90
2018-09-03T17:38:53.542Z,23.10
2018-09-03T17:41:30.960Z,22.93
2018-09-03T17:44:07.001Z,24.73
2018-09-03T17:46:42.875Z,23.90
2018-09-03T17:49:18.210Z,24.20
2018-09-03T17:51:59.727Z,24.27
2018-09-03T17:54:35.008Z,24.03
2018-09-03T17:57:10.617Z,24.20
2018-09-03T17:59:47.238Z,26.13
2018-09-03T18:02:22.515Z,26.13
2018-09-03T18:04:57.670Z,24.60
2018-09-03T18:07:36.329Z,25.90
2018-09-03T18:10:11.870Z,25.53
2018-09-03T18:12:47.160Z,25.03
2018-09-03T18:15:26.328Z,24.90
2018-09-03T18:18:01.715Z,25.03
2018-09-03T18:20:40.688Z,25.07
2018-09-03T18:23:19.160Z,23.67
2018-09-03T18:25:58.028Z,26.10
2018-09-03T18:28:39.095Z,25.93
2018-09-03T18:31:22.061Z,26.07
2018-09-03T18:34:03.883Z,25.87
2018-09-03T18:36:42.593Z,26.90
2018-09-03T18:39:24.970Z,24.47
2018-09-03T18:42:01.854Z,25.00
2018-09-03T18:44:46.516Z,25.20
2018-09-03T18:47:22.171Z,26.00
2018-09-03T18:50:01.585Z,25.30
2018-09-03T18:52:43.312Z,26.07
2018-09-03T18:55:21.496Z,26.20
2018-09-03T18:57:57.900Z,25.90
2018-09-03T19:00:33.779Z,26.07
2018-09-03T19:03:14.736Z,26.23
2018-09-03T19:05:50.221Z,25.87
2018-09-03T19:08:26.449Z,26.37
2018-09-03T19:11:09.307Z,26.27
2018-09-03T19:13:45.601Z,26.17
2018-09-03T19:16:21.290Z,26.57
2018-09-03T19:18:57.018Z,27.47
2018-09-03T19:21:32.679Z,26.60
2018-09-03T19:24:12.017Z,26.50
2018-09-03T19:26:47.681Z,27.57
2018-09-03T19:29:32.545Z,26.63
2018-09-03T19:32:08.244Z,28.13
2018-09-03T19:34:43.942Z,27.33
2018-09-03T19:37:19.973Z,25.90
2018-09-03T19:39:55.640Z,27.60
2018-09-03T19:42:31.402Z,26.90
2018-09-03T19:45:15.234Z,26.30
2018-09-03T19:47:50.871Z,27.63
2018-09-03T19:50:26.131Z,27.20
2018-09-03T19:53:02.283Z,27.13
2018-09-03T19:55:37.716Z,27.43
2018-09-03T19:58:14.874Z,27.93
2018-09-03T20:00:53.809Z,28.73
2018-09-03T20:03:29.449Z,27.83
2018-09-03T20:06:04.998Z,28.80
2018-09-03T20:08:44.269Z,26.83
2018-09-03T20:11:19.822Z,27.17
2018-09-03T20:13:55.232Z,28.47
2018-09-03T20:16:38.904Z,27.10
2018-09-03T20:19:14.167Z,25.23
2018-09-03T20:21:49.339Z,25.57
2018-09-03T20:24:25.173Z,25.90
2018-09-03T20:27:03.246Z,25.80
2018-09-03T20:29:38.654Z,26.87
2018-09-03T20:32:17.969Z,25.97
2018-09-03T20:34:53.259Z,25.33
2018-09-03T20:37:28.801Z,25.53
2018-09-03T20:40:04.325Z,24.93
2018-09-03T20:42:39.791Z,24.73
2018-09-03T20:45:14.992Z,25.20
2018-09-03T20:47:51.435Z,25.20
2018-09-03T20:50:26.705Z,24.83
2018-09-03T20:53:02.086Z,24.30
2018-09-03T20:55:41.400Z,24.67
2018-09-03T20:58:16.855Z,23.63
2018-09-03T21:01:00.498Z,28.90
2018-09-03T21:03:35.742Z,26.50
2018-09-03T21:06:11.152Z,27.07
2018-09-03T21:08:50.688Z,26.50
2018-09-03T21:11:27.160Z,26.37
2018-09-03T21:14:02.638Z,26.87
2018-09-03T21:16:40.588Z,25.87
2018-09-03T21:19:16.070Z,23.10
2018-09-03T21:21:51.543Z,23.87
2018-09-03T21:24:27.148Z,23.77
2018-09-03T21:27:02.463Z,23.67
2018-09-03T21:29:39.864Z,25.80
2018-09-03T21:32:16.205Z,23.57
2018-09-03T21:34:59.733Z,25.07
2018-09-03T21:37:35.333Z,25.83
2018-09-03T21:40:18.898Z,25.50
2018-09-03T21:42:54.270Z,26.00
2018-09-03T21:45:29.911Z,24.47
2018-09-03T21:48:06.106Z,24.67
2018-09-03T21:50:41.685Z,26.33
2018-09-03T21:53:17.031Z,25.73
2018-09-03T21:55:53.965Z,26.60
2018-09-03T21:58:30.267Z,25.23
2018-09-03T22:01:05.641Z,25.33
2018-09-03T22:03:45.142Z,26.00
2018-09-03T22:06:20.567Z,25.57
2018-09-03T22:08:55.854Z,25.23
2018-09-03T22:11:31.863Z,26.43
2018-09-03T22:14:07.183Z,26.20
2018-09-03T22:16:42.751Z,24.90
2018-09-03T22:19:20.647Z,26.53
2018-09-03T22:21:56.754Z,24.87
2018-09-03T22:24:31.996Z,24.97
2018-09-03T22:27:12.043Z,26.50
2018-09-03T22:29:47.316Z,26.07
2018-09-03T22:32:22.784Z,25.17
2018-09-03T22:34:58.330Z,25.80
2018-09-03T22:37:33.607Z,25.87
2018-09-03T22:40:08.920Z,25.63
2018-09-03T22:42:44.300Z,25.03
2018-09-03T22:45:21.122Z,23.77
2018-09-03T22:47:56.248Z,22.53
2018-09-03T22:50:31.641Z,23.37
2018-09-03T22:53:09.086Z,23.60
2018-09-03T22:55:44.361Z,23.23
2018-09-03T22:58:19.461Z,21.67
2018-09-03T23:00:55.063Z,25.53
2018-09-03T23:03:30.196Z,23.47
2018-09-03T23:06:05.568Z,23.67
2018-09-03T23:08:43.143Z,23.43
2018-09-03T23:11:18.111Z,23.70
2018-09-03T23:13:53.509Z,23.87
2018-09-03T23:16:29.610Z,22.80
2018-09-03T23:19:04.988Z,21.90
2018-09-03T23:21:40.233Z,22.97
2018-09-03T23:24:15.659Z,24.40
2018-09-03T23:26:50.840Z,24.33
2018-09-03T23:29:26.148Z,23.30
2018-09-03T23:32:02.534Z,23.60
2018-09-03T23:34:37.729Z,23.30
2018-09-03T23:37:12.853Z,24.73
2018-09-03T23:39:50.695Z,25.47
2018-09-03T23:42:25.674Z,25.20
2018-09-03T23:45:01.043Z,24.17
2018-09-03T23:47:44.608Z,24.93
2018-09-03T23:50:19.954Z,24.40
2018-09-03T23:52:55.407Z,23.23
2018-09-03T23:55:30.934Z,24.13
2018-09-03T23:58:06.153Z,23.30
